createdAt,value
2022-09-12T00:00:21.383Z,13.05
2022-09-12T00:02:47.720Z,15.63
2022-09-12T00:05:14.135Z,12.10
2022-09-12T00:07:40.626Z,11.25
2022-09-12T00:10:07.252Z,14.90
2022-09-12T00:12:33.609Z,11.32
2022-09-12T00:14:59.960Z,11.32
2022-09-12T00:17:26.312Z,10.18
2022-09-12T00:19:52.602Z,14.52
2022-09-12T00:22:19.003Z,12.18
2022-09-12T00:24:45.497Z,11.10
2022-09-12T00:27:11.871Z,13.68
2022-09-12T00:29:38.270Z,10.93
2022-09-12T00:32:04.659Z,12.85
2022-09-12T00:34:31.090Z,13.77
2022-09-12T00:36:57.423Z,14.55
2022-09-12T00:39:24.033Z,10.30
2022-09-12T00:41:50.431Z,10.18
2022-09-12T00:44:22.935Z,11.43
2022-09-12T00:47:05.110Z,13.45
2022-09-12T00:50:00.995Z,11.35
2022-09-12T00:52:46.708Z,12.07
2022-09-12T00:55:19.433Z,13.60
2022-09-12T00:58:01.953Z,12.68
2022-09-12T01:00:28.798Z,14.20
2022-09-12T01:03:00.022Z,12.95
2022-09-12T01:05:29.766Z,12.02
2022-09-12T01:07:57.029Z,13.15
2022-09-12T01:10:24.023Z,12.68
2022-09-12T01:12:50.599Z,13.80
2022-09-12T01:15:17.029Z,12.82
2022-09-12T01:18:01.951Z,12.43
2022-09-12T01:20:59.192Z,14.45
2022-09-12T01:24:01.679Z,12.32
2022-09-12T01:26:47.998Z,14.70
2022-09-12T01:29:33.611Z,15.48
2022-09-12T01:32:14.872Z,12.75
2022-09-12T01:34:59.076Z,12.55
2022-09-12T01:37:33.363Z,12.65
2022-09-12T01:40:25.083Z,13.23
2022-09-12T01:43:02.511Z,11.43
2022-09-12T01:45:44.045Z,12.70
2022-09-12T01:48:19.681Z,13.63
2022-09-12T01:50:55.357Z,11.18
2022-09-12T01:53:33.580Z,11.63
2022-09-12T01:56:11.495Z,11.98
2022-09-12T01:58:52.243Z,11.48
2022-09-12T02:01:27.292Z,13.43
2022-09-12T02:04:18.093Z,12.40
2022-09-12T02:06:49.600Z,11.98
2022-09-12T02:09:44.445Z,11.05
2022-09-12T02:12:14.760Z,10.32
2022-09-12T02:14:46.212Z,12.05
2022-09-12T02:17:24.550Z,13.43
2022-09-12T02:20:06.357Z,14.25
2022-09-12T02:22:37.293Z,19.13
2022-09-12T02:25:08.021Z,16.23
2022-09-12T02:27:42.846Z,13.45
2022-09-12T02:30:10.523Z,15.00
2022-09-12T02:33:07.101Z,11.32
2022-09-12T02:35:43.025Z,14.75
2022-09-12T02:38:17.583Z,13.30
2022-09-12T02:40:45.211Z,18.98
2022-09-12T02:43:11.878Z,11.80
2022-09-12T02:45:38.408Z,12.23
2022-09-12T02:48:09.026Z,13.98
2022-09-12T02:50:36.189Z,16.10
2022-09-12T02:53:03.452Z,12.50
2022-09-12T02:55:31.009Z,12.65
2022-09-12T02:57:57.401Z,14.43
2022-09-12T03:00:25.004Z,14.18
2022-09-12T03:03:15.262Z,13.52
2022-09-12T03:05:55.620Z,15.43
2022-09-12T03:08:43.449Z,10.77
2022-09-12T03:11:45.430Z,15.55
2022-09-12T03:14:31.376Z,14.02
2022-09-12T03:17:26.854Z,16.45
2022-09-12T03:20:10.615Z,12.57
2022-09-12T03:22:51.205Z,13.07
2022-09-12T03:25:48.580Z,10.82
2022-09-12T03:28:17.648Z,11.05
2022-09-12T03:30:49.186Z,14.73
2022-09-12T03:33:19.891Z,14.40
2022-09-12T03:35:47.449Z,14.48
2022-09-12T03:38:13.958Z,14.52
2022-09-12T03:40:40.439Z,14.30
2022-09-12T03:43:08.693Z,17.25
2022-09-12T03:45:36.333Z,13.10
2022-09-12T03:48:03.478Z,13.38
2022-09-12T03:50:29.818Z,15.32
2022-09-12T03:52:58.416Z,17.00
2022-09-12T03:55:24.744Z,15.23
2022-09-12T03:57:53.205Z,21.25
2022-09-12T04:00:20.083Z,24.95
2022-09-12T04:02:46.785Z,18.13
2022-09-12T04:05:13.310Z,19.13
2022-09-12T04:07:39.733Z,21.90
2022-09-12T04:10:06.625Z,16.45
2022-09-12T04:12:33.065Z,18.38
2022-09-12T04:14:59.459Z,15.90
2022-09-12T04:17:25.877Z,19.33
2022-09-12T04:19:52.526Z,15.77
2022-09-12T04:22:18.846Z,15.85
2022-09-12T04:24:45.522Z,18.70
2022-09-12T04:27:11.831Z,16.58
2022-09-12T04:29:38.218Z,19.33
2022-09-12T04:32:04.827Z,16.92
2022-09-12T04:34:31.847Z,18.52
2022-09-12T04:36:58.361Z,19.88
2022-09-12T04:39:24.766Z,19.38
2022-09-12T04:41:51.384Z,21.88
2022-09-12T04:44:17.802Z,17.83
2022-09-12T04:46:46.230Z,16.15
2022-09-12T04:49:14.173Z,21.95
2022-09-12T04:51:42.812Z,18.20
2022-09-12T04:54:13.155Z,19.08
2022-09-12T04:56:41.856Z,22.77
2022-09-12T04:59:09.078Z,20.48
2022-09-12T05:01:35.792Z,19.00
2022-09-12T05:04:02.744Z,20.25
2022-09-12T05:06:34.519Z,20.15
2022-09-12T05:09:02.613Z,23.08
2022-09-12T05:11:53.107Z,23.60
2022-09-12T05:14:18.446Z,25.38
2022-09-12T05:16:49.044Z,18.65
2022-09-12T05:19:15.882Z,28.67
2022-09-12T05:21:42.213Z,17.85
2022-09-12T05:24:10.690Z,17.80
2022-09-12T05:26:37.089Z,19.33
2022-09-12T05:29:04.828Z,21.77
2022-09-12T05:31:31.219Z,24.27
2022-09-12T05:33:57.652Z,23.98
2022-09-12T05:36:27.107Z,18.85
2022-09-12T05:38:53.744Z,15.85
2022-09-12T05:41:25.036Z,20.77
2022-09-12T05:44:12.491Z,27.42
2022-09-12T05:46:43.037Z,20.65
2022-09-12T05:49:11.487Z,20.33
2022-09-12T05:51:41.016Z,13.93
2022-09-12T05:54:10.115Z,15.77
2022-09-12T05:56:41.863Z,12.48
2022-09-12T05:59:22.525Z,14.57
2022-09-12T06:01:49.386Z,13.57
2022-09-12T06:04:16.130Z,32.08
2022-09-12T06:06:44.027Z,19.55
2022-09-12T06:09:11.482Z,10.50
2022-09-12T06:11:39.622Z,13.82
2022-09-12T06:14:06.548Z,10.38
2022-09-12T06:16:34.318Z,13.43
2022-09-12T06:19:04.444Z,17.40
2022-09-12T06:21:30.874Z,15.77
2022-09-12T06:23:57.749Z,15.38
2022-09-12T06:26:24.778Z,10.70
2022-09-12T06:28:53.133Z,11.10
2022-09-12T06:31:22.196Z,10.00
2022-09-12T06:33:50.900Z,11.15
2022-09-12T06:36:31.558Z,10.68
2022-09-12T06:39:03.454Z,11.45
2022-09-12T06:41:31.164Z,14.05
2022-09-12T06:43:58.489Z,10.02
2022-09-12T06:46:25.513Z,10.30
2022-09-12T06:48:52.210Z,10.40
2022-09-12T06:51:20.078Z,11.38
2022-09-12T06:53:47.874Z,10.77
2022-09-12T06:56:18.436Z,9.40
2022-09-12T06:58:46.050Z,11.85
2022-09-12T07:01:19.665Z,8.23
2022-09-12T07:03:51.568Z,11.43
2022-09-12T07:06:25.306Z,11.20
2022-09-12T07:08:51.703Z,11.50
2022-09-12T07:11:24.777Z,12.23
2022-09-12T07:13:55.663Z,16.33
2022-09-12T07:16:22.708Z,12.27
2022-09-12T07:18:53.987Z,11.98
2022-09-12T07:21:20.710Z,13.38
2022-09-12T07:23:48.215Z,12.02
2022-09-12T07:26:16.394Z,13.43
2022-09-12T07:28:43.723Z,11.05
2022-09-12T07:31:15.781Z,13.45
2022-09-12T07:33:43.387Z,12.18
2022-09-12T07:36:17.136Z,12.50
2022-09-12T07:38:44.346Z,12.25
2022-09-12T07:41:20.142Z,10.27
2022-09-12T07:43:46.965Z,13.43
2022-09-12T07:46:14.114Z,9.27
2022-09-12T07:48:40.651Z,11.07
2022-09-12T07:51:09.941Z,11.52
2022-09-12T07:53:46.171Z,9.95
2022-09-12T07:56:13.589Z,10.32
2022-09-12T07:58:42.407Z,12.65
2022-09-12T08:01:17.940Z,16.83
2022-09-12T08:03:48.332Z,12.63
2022-09-12T08:06:17.727Z,12.85
2022-09-12T08:08:44.025Z,11.07
2022-09-12T08:11:12.885Z,11.32
2022-09-12T08:13:41.565Z,11.43
2022-09-12T08:16:15.955Z,11.85
2022-09-12T08:18:42.379Z,9.93
2022-09-12T08:21:13.052Z,11.63
2022-09-12T08:26:06.759Z,9.07
2022-09-12T08:28:35.090Z,10.43
2022-09-12T08:31:05.705Z,9.15
2022-09-12T08:33:32.728Z,10.05
2022-09-12T08:36:06.367Z,9.85
2022-09-12T08:38:36.679Z,10.30
2022-09-12T08:41:18.530Z,9.63
2022-09-12T08:43:56.762Z,7.72
2022-09-12T08:46:39.017Z,10.20
2022-09-12T08:49:10.821Z,8.77
2022-09-12T08:51:39.130Z,9.77
2022-09-12T08:54:18.940Z,9.25
2022-09-12T08:56:46.715Z,9.65
2022-09-12T08:59:13.222Z,8.57
2022-09-12T09:01:45.491Z,8.48
2022-09-12T09:04:14.957Z,9.50
2022-09-12T09:07:23.785Z,6.93
2022-09-12T09:10:22.197Z,10.02
2022-09-12T09:12:59.969Z,11.05
2022-09-12T09:16:07.906Z,7.32
2022-09-12T09:18:36.067Z,11.68
2022-09-12T09:21:12.000Z,7.60
2022-09-12T09:23:46.242Z,6.35
2022-09-12T09:26:28.997Z,5.90
2022-09-12T09:29:02.216Z,6.63
2022-09-12T09:31:34.869Z,5.93
2022-09-12T09:34:01.497Z,5.57
2022-09-12T09:36:50.305Z,7.45
2022-09-12T09:39:30.690Z,8.73
2022-09-12T09:42:34.695Z,4.53
2022-09-12T09:45:04.492Z,4.53
2022-09-12T09:47:30.877Z,3.72
2022-09-12T09:49:57.255Z,4.22
2022-09-12T09:52:30.502Z,4.07
2022-09-12T09:54:59.927Z,4.05
2022-09-12T09:57:35.158Z,3.60
2022-09-12T10:00:28.529Z,2.83
2022-09-12T10:03:19.574Z,3.22
2022-09-12T10:05:50.017Z,3.17
2022-09-12T10:10:58.461Z,6.38
2022-09-12T10:13:34.506Z,3.22
2022-09-12T10:16:16.618Z,3.08
2022-09-12T10:18:43.523Z,4.88
2022-09-12T10:21:16.461Z,2.90
2022-09-12T10:23:43.505Z,2.35
2022-09-12T10:26:12.802Z,2.67
2022-09-12T10:28:43.845Z,2.95
2022-09-12T10:31:15.318Z,5.28
2022-09-12T10:33:48.364Z,3.45
2022-09-12T10:36:15.735Z,3.63
2022-09-12T10:38:50.448Z,4.55
2022-09-12T10:41:17.972Z,2.63
2022-09-12T10:43:45.000Z,2.78
2022-09-12T10:46:28.673Z,2.40
2022-09-12T10:49:19.436Z,3.58
2022-09-12T10:51:45.917Z,3.88
2022-09-12T10:54:12.862Z,3.25
2022-09-12T10:56:47.845Z,2.47
2022-09-12T10:59:28.779Z,2.30
2022-09-12T11:02:25.971Z,2.88
2022-09-12T11:05:08.901Z,2.63
2022-09-12T11:07:43.145Z,3.03
2022-09-12T11:10:26.112Z,2.80
2022-09-12T11:13:21.433Z,3.03
2022-09-12T11:15:56.777Z,3.25
2022-09-12T11:18:33.665Z,2.17
2022-09-12T11:21:06.789Z,3.30
2022-09-12T11:24:04.844Z,3.58
2022-09-12T11:26:43.950Z,2.25
2022-09-12T11:29:27.921Z,2.67
2022-09-12T11:32:21.717Z,2.08
2022-09-12T11:35:17.972Z,3.25
2022-09-12T11:38:08.925Z,3.25
2022-09-12T11:40:48.331Z,2.85
2022-09-12T11:43:48.454Z,2.40
2022-09-12T11:46:34.790Z,2.25
2022-09-12T11:49:10.645Z,4.05
2022-09-12T11:51:57.770Z,2.22
2022-09-12T11:54:59.113Z,1.98
2022-09-12T11:57:25.415Z,1.50
2022-09-12T11:59:59.876Z,3.45
2022-09-12T12:02:29.467Z,1.50
2022-09-12T12:05:06.599Z,2.10
2022-09-12T12:07:45.614Z,1.90
2022-09-12T12:10:31.791Z,2.13
2022-09-12T12:13:00.550Z,1.67
2022-09-12T12:15:28.702Z,1.58
2022-09-12T12:18:25.452Z,1.60
2022-09-12T12:20:53.448Z,1.70
2022-09-12T12:23:23.657Z,1.65
2022-09-12T12:29:00.097Z,3.05
2022-09-12T12:31:26.696Z,1.70
2022-09-12T12:33:55.436Z,1.52
2022-09-12T12:36:41.268Z,1.60
2022-09-12T12:39:32.663Z,2.58
2022-09-12T12:42:01.976Z,1.70
2022-09-12T12:44:43.842Z,1.67
2022-09-12T12:47:22.675Z,1.30
2022-09-12T12:50:22.642Z,1.95
2022-09-12T12:52:59.253Z,1.70
2022-09-12T12:55:48.902Z,1.90
2022-09-12T12:58:38.268Z,2.13
2022-09-12T13:01:17.006Z,1.67
2022-09-12T13:03:46.384Z,2.30
2022-09-12T13:06:34.260Z,1.70
2022-09-12T13:09:05.826Z,1.50
2022-09-12T13:11:36.613Z,1.77
2022-09-12T13:14:05.991Z,5.15
2022-09-12T13:16:51.649Z,1.80
2022-09-12T13:19:26.460Z,1.70
2022-09-12T13:22:06.565Z,2.03
2022-09-12T13:24:33.809Z,1.75
2022-09-12T13:27:00.295Z,1.70
2022-09-12T13:29:28.161Z,1.60
2022-09-12T13:31:58.123Z,2.08
2022-09-12T13:34:56.779Z,1.88
2022-09-12T13:37:34.862Z,2.60
2022-09-12T13:40:22.874Z,1.85
2022-09-12T13:42:49.787Z,2.67
2022-09-12T13:45:22.726Z,1.67
2022-09-12T13:47:57.961Z,2.90
2022-09-12T13:50:28.837Z,1.77
2022-09-12T13:53:00.037Z,1.63
2022-09-12T13:55:33.677Z,2.33
2022-09-12T13:58:03.593Z,2.60
2022-09-12T14:00:32.052Z,2.60
2022-09-12T14:03:00.120Z,1.83
2022-09-12T14:05:26.772Z,1.58
2022-09-12T14:08:01.109Z,1.67
2022-09-12T14:10:33.624Z,1.60
2022-09-12T14:13:23.946Z,3.10
2022-09-12T14:18:29.714Z,5.25
2022-09-12T14:21:09.163Z,4.45
2022-09-12T14:23:40.108Z,1.90
2022-09-12T14:26:10.957Z,5.68
2022-09-12T14:28:40.632Z,1.60
2022-09-12T14:31:30.176Z,1.65
2022-09-12T14:34:17.727Z,3.00
2022-09-12T14:36:50.622Z,2.72
2022-09-12T14:39:19.734Z,2.00
2022-09-12T14:41:46.132Z,2.15
2022-09-12T14:44:25.175Z,2.05
2022-09-12T14:46:52.117Z,1.40
2022-09-12T14:49:25.919Z,1.58
2022-09-12T14:51:53.101Z,2.53
2022-09-12T14:54:28.682Z,1.73
2022-09-12T14:56:56.366Z,1.63
2022-09-12T14:59:34.873Z,2.88
2022-09-12T15:02:19.404Z,1.90
2022-09-12T15:04:51.300Z,1.60
2022-09-12T15:07:33.549Z,2.58
2022-09-12T15:10:03.885Z,1.63
2022-09-12T15:15:20.136Z,2.78
2022-09-12T15:17:46.707Z,1.80
2022-09-12T15:20:14.104Z,2.95
2022-09-12T15:22:41.969Z,2.08
2022-09-12T15:25:10.976Z,1.67
2022-09-12T15:27:37.367Z,2.00
2022-09-12T15:30:04.212Z,1.40
2022-09-12T15:32:30.589Z,1.02
2022-09-12T15:34:56.959Z,1.70
2022-09-12T15:37:24.228Z,1.73
2022-09-12T15:39:51.231Z,1.50
2022-09-12T15:42:24.013Z,1.40
2022-09-12T15:44:50.441Z,1.90
2022-09-12T15:47:16.791Z,2.05
2022-09-12T15:49:43.105Z,1.25
2022-09-12T15:52:15.232Z,1.50
2022-09-12T15:54:42.041Z,2.45
2022-09-12T15:57:08.749Z,2.05
2022-09-12T15:59:35.723Z,1.92
2022-09-12T16:02:02.138Z,1.38
2022-09-12T16:04:29.790Z,1.83
2022-09-12T16:06:56.856Z,2.05
2022-09-12T16:09:23.899Z,3.88
2022-09-12T16:11:50.520Z,1.58
2022-09-12T16:14:18.768Z,1.83
2022-09-12T16:16:52.000Z,1.67
2022-09-12T16:19:18.392Z,1.23
2022-09-12T16:21:44.789Z,2.28
2022-09-12T16:24:11.357Z,1.83
2022-09-12T16:26:37.788Z,4.18
2022-09-12T16:29:04.242Z,2.15
2022-09-12T16:31:30.570Z,1.40
2022-09-12T16:33:56.896Z,1.80
2022-09-12T16:36:23.358Z,2.97
2022-09-12T16:38:51.873Z,1.85
2022-09-12T16:41:20.736Z,1.73
2022-09-12T16:43:47.541Z,1.63
2022-09-12T16:46:19.110Z,1.77
2022-09-12T16:48:51.825Z,2.08
2022-09-12T16:51:22.165Z,2.33
2022-09-12T16:53:49.461Z,2.25
2022-09-12T16:56:15.905Z,5.75
2022-09-12T16:58:43.236Z,1.63
2022-09-12T17:01:12.248Z,2.03
2022-09-12T17:03:39.172Z,1.60
2022-09-12T17:06:17.317Z,2.72
2022-09-12T17:08:46.597Z,4.90
2022-09-12T17:11:15.904Z,2.10
2022-09-12T17:14:03.743Z,1.48
2022-09-12T17:16:32.357Z,4.50
2022-09-12T17:18:58.772Z,3.53
2022-09-12T17:21:25.451Z,3.00
2022-09-12T17:23:51.897Z,1.58
2022-09-12T17:26:18.448Z,1.60
2022-09-12T17:28:44.959Z,1.45
2022-09-12T17:31:13.809Z,1.98
2022-09-12T17:33:41.196Z,3.15
2022-09-12T17:36:16.054Z,2.38
2022-09-12T17:38:43.712Z,2.75
2022-09-12T17:41:16.259Z,1.45
2022-09-12T17:43:44.172Z,1.63
2022-09-12T17:46:10.693Z,4.15
2022-09-12T17:48:37.253Z,2.05
2022-09-12T17:51:14.140Z,1.58
2022-09-12T17:53:41.500Z,1.85
2022-09-12T17:56:08.734Z,3.55
2022-09-12T17:58:35.701Z,5.00
2022-09-12T18:01:04.926Z,6.20
2022-09-12T18:03:31.499Z,6.32
2022-09-12T18:05:57.822Z,3.90
2022-09-12T18:08:24.477Z,3.10
2022-09-12T18:10:51.801Z,5.70
2022-09-12T18:13:18.250Z,5.20
2022-09-12T18:15:44.707Z,5.80
2022-09-12T18:18:11.096Z,2.30
2022-09-12T18:20:37.397Z,4.15
2022-09-12T18:23:03.999Z,4.10
2022-09-12T18:25:30.352Z,5.63
2022-09-12T18:27:57.179Z,4.70
2022-09-12T18:30:23.587Z,3.70
2022-09-12T18:32:50.108Z,3.33
2022-09-12T18:35:16.971Z,4.40
2022-09-12T18:37:43.299Z,3.53
2022-09-12T18:40:10.385Z,5.03
2022-09-12T18:42:36.801Z,6.50
2022-09-12T18:45:03.273Z,5.10
2022-09-12T18:47:29.590Z,5.63
2022-09-12T18:49:55.921Z,6.50
2022-09-12T18:52:23.596Z,3.10
2022-09-12T18:54:50.288Z,6.45
2022-09-12T18:57:16.703Z,6.18
2022-09-12T18:59:43.000Z,8.23
2022-09-12T19:02:15.804Z,4.63
2022-09-12T19:04:42.350Z,7.55
2022-09-12T19:07:08.851Z,3.65
2022-09-12T19:09:35.501Z,5.47
2022-09-12T19:12:02.042Z,5.22
2022-09-12T19:14:28.512Z,3.78
2022-09-12T19:16:54.825Z,4.18
2022-09-12T19:19:21.572Z,4.13
2022-09-12T19:21:48.010Z,8.77
2022-09-12T19:24:14.456Z,3.63
2022-09-12T19:26:41.354Z,6.72
2022-09-12T19:29:08.441Z,4.10
2022-09-12T19:31:34.892Z,5.25
2022-09-12T19:34:02.977Z,3.55
2022-09-12T19:36:46.622Z,8.30
2022-09-12T19:39:13.692Z,5.43
2022-09-12T19:41:40.185Z,3.70
2022-09-12T19:44:06.653Z,4.13
2022-09-12T19:46:33.189Z,8.93
2022-09-12T19:48:59.906Z,4.85
2022-09-12T19:51:26.458Z,6.07
2022-09-12T19:53:52.827Z,3.78
2022-09-12T19:56:19.327Z,6.63
2022-09-12T19:58:50.868Z,6.93
2022-09-12T20:01:23.347Z,5.25
2022-09-12T20:03:50.643Z,3.70
2022-09-12T20:06:17.467Z,6.03
2022-09-12T20:08:44.744Z,5.97
2022-09-12T20:11:14.173Z,5.70
2022-09-12T20:13:40.974Z,2.97
2022-09-12T20:16:15.015Z,3.72
2022-09-12T20:18:45.122Z,3.30
2022-09-12T20:21:20.126Z,5.32
2022-09-12T20:23:46.802Z,8.90
2022-09-12T20:26:13.365Z,8.68
2022-09-12T20:28:40.528Z,3.72
2022-09-12T20:31:12.116Z,9.05
2022-09-12T20:33:39.567Z,3.63
2022-09-12T20:36:17.458Z,3.92
2022-09-12T20:38:49.193Z,7.32
2022-09-12T20:41:16.814Z,4.72
2022-09-12T20:43:43.452Z,7.07
2022-09-12T20:46:10.905Z,3.78
2022-09-12T20:48:38.673Z,6.75
2022-09-12T20:51:05.435Z,5.95
2022-09-12T20:53:34.827Z,3.97
2022-09-12T20:56:02.564Z,4.63
2022-09-12T20:58:28.976Z,3.97
2022-09-12T21:00:55.381Z,5.30
2022-09-12T21:03:21.792Z,3.60
2022-09-12T21:05:49.190Z,3.83
2022-09-12T21:08:15.507Z,4.03
2022-09-12T21:10:43.233Z,4.75
2022-09-12T21:13:13.603Z,5.25
2022-09-12T21:15:41.474Z,4.03
2022-09-12T21:18:08.136Z,4.32
2022-09-12T21:20:34.892Z,5.75
2022-09-12T21:23:01.679Z,3.08
2022-09-12T21:25:28.974Z,3.90
2022-09-12T21:27:55.662Z,4.55
2022-09-12T21:30:22.097Z,4.97
2022-09-12T21:32:48.468Z,5.32
2022-09-12T21:35:14.846Z,3.78
2022-09-12T21:37:41.160Z,7.05
2022-09-12T21:40:07.756Z,4.97
2022-09-12T21:42:34.101Z,3.63
2022-09-12T21:45:00.401Z,6.32
2022-09-12T21:47:26.751Z,4.40
2022-09-12T21:49:53.087Z,5.53
2022-09-12T21:52:19.599Z,5.32
2022-09-12T21:54:45.933Z,9.30
2022-09-12T21:57:12.418Z,8.60
2022-09-12T21:59:40.131Z,4.15
2022-09-12T22:02:06.844Z,7.05
2022-09-12T22:04:33.172Z,7.00
2022-09-12T22:06:59.492Z,4.22
2022-09-12T22:09:25.850Z,8.13
2022-09-12T22:11:52.114Z,4.90
2022-09-12T22:14:18.728Z,4.90
2022-09-12T22:16:45.069Z,3.60
2022-09-12T22:19:11.450Z,3.47
2022-09-12T22:21:37.738Z,9.20
2022-09-12T22:24:04.182Z,5.68
2022-09-12T22:26:31.298Z,7.35
2022-09-12T22:28:57.940Z,5.97
2022-09-12T22:31:24.300Z,5.40
2022-09-12T22:33:50.697Z,5.93
2022-09-12T22:36:17.025Z,5.75
2022-09-12T22:38:43.759Z,5.40
2022-09-12T22:41:11.769Z,8.45
2022-09-12T22:43:38.418Z,4.28
2022-09-12T22:46:09.995Z,4.20
2022-09-12T22:48:36.707Z,4.55
2022-09-12T22:51:03.381Z,5.68
2022-09-12T22:53:29.724Z,4.57
2022-09-12T22:55:56.074Z,5.75
2022-09-12T22:58:22.462Z,6.38
2022-09-12T23:00:50.203Z,7.00
2022-09-12T23:03:20.589Z,6.18
2022-09-12T23:05:47.877Z,10.60
2022-09-12T23:08:15.373Z,5.80
2022-09-12T23:10:41.989Z,4.95
2022-09-12T23:13:08.337Z,3.90
2022-09-12T23:15:34.696Z,4.47
2022-09-12T23:18:01.159Z,4.22
2022-09-12T23:20:27.816Z,3.92
2022-09-12T23:22:54.132Z,5.18
2022-09-12T23:25:21.247Z,6.25
2022-09-12T23:27:47.751Z,4.82
2022-09-12T23:30:14.100Z,5.05
2022-09-12T23:32:40.778Z,6.60
2022-09-12T23:35:07.519Z,4.03
2022-09-12T23:37:33.995Z,6.53
2022-09-12T23:40:00.707Z,6.85
2022-09-12T23:42:27.167Z,4.97
2022-09-12T23:44:53.844Z,7.43
2022-09-12T23:47:21.392Z,5.57
2022-09-12T23:49:47.691Z,8.85
2022-09-12T23:52:14.027Z,6.13
2022-09-12T23:54:40.353Z,5.40
2022-09-12T23:57:06.659Z,6.78
2022-09-12T23:59:32.953Z,4.85
